sensor_id;sensor_type;location;lat;lon;timestamp;temperature;humidity
33645;DHT22;19986;48.190;16.366;2023-03-16T00:00:12;7.10;99.90
33645;DHT22;19986;48.190;16.366;2023-03-16T00:02:39;7.00;99.90
33645;DHT22;19986;48.190;16.366;2023-03-16T00:05:21;7.10;99.90
33645;DHT22;19986;48.190;16.366;2023-03-16T00:07:46;7.00;99.90
33645;DHT22;19986;48.190;16.366;2023-03-16T00:10:12;7.00;99.90
33645;DHT22;19986;48.190;16.366;2023-03-16T00:12:38;7.00;99.90
33645;DHT22;19986;48.190;16.366;2023-03-16T00:15:05;7.10;99.90
33645;DHT22;19986;48.190;16.366;2023-03-16T00:17:31;7.10;99.90
33645;DHT22;19986;48.190;16.366;2023-03-16T00:19:56;7.00;99.90
33645;DHT22;19986;48.190;16.366;2023-03-16T00:22:28;7.00;99.90
33645;DHT22;19986;48.190;16.366;2023-03-16T00:24:55;7.00;99.90
33645;DHT22;19986;48.190;16.366;2023-03-16T00:27:22;7.00;99.90
33645;DHT22;19986;48.190;16.366;2023-03-16T00:29:49;7.00;99.90
33645;DHT22;19986;48.190;16.366;2023-03-16T00:32:28;6.90;99.90
33645;DHT22;19986;48.190;16.366;2023-03-16T00:34:55;6.80;99.90
33645;DHT22;19986;48.190;16.366;2023-03-16T00:37:22;6.80;99.90
33645;DHT22;19986;48.190;16.366;2023-03-16T00:39:48;6.70;99.90
33645;DHT22;19986;48.190;16.366;2023-03-16T00:42:16;6.70;99.90
33645;DHT22;19986;48.190;16.366;2023-03-16T00:44:42;6.70;99.90
33645;DHT22;19986;48.190;16.366;2023-03-16T00:47:09;6.70;99.90
33645;DHT22;19986;48.190;16.366;2023-03-16T00:49:39;6.70;99.90
33645;DHT22;19986;48.190;16.366;2023-03-16T00:52:09;6.80;99.90
33645;DHT22;19986;48.190;16.366;2023-03-16T00:54:40;6.80;99.90
33645;DHT22;19986;48.190;16.366;2023-03-16T00:57:08;6.90;99.90
33645;DHT22;19986;48.190;16.366;2023-03-16T00:59:34;6.90;99.90
33645;DHT22;19986;48.190;16.366;2023-03-16T01:02:04;6.90;99.90
33645;DHT22;19986;48.190;16.366;2023-03-16T01:04:30;6.90;99.90
33645;DHT22;19986;48.190;16.366;2023-03-16T01:06:57;6.90;99.90
33645;DHT22;19986;48.190;16.366;2023-03-16T01:09:23;6.80;99.90
33645;DHT22;19986;48.190;16.366;2023-03-16T01:11:49;6.60;99.90
33645;DHT22;19986;48.190;16.366;2023-03-16T01:14:19;6.60;99.90
33645;DHT22;19986;48.190;16.366;2023-03-16T01:16:45;6.60;99.90
33645;DHT22;19986;48.190;16.366;2023-03-16T01:19:12;6.60;99.90
33645;DHT22;19986;48.190;16.366;2023-03-16T01:21:41;6.60;99.90
33645;DHT22;19986;48.190;16.366;2023-03-16T01:24:07;6.50;99.90
33645;DHT22;19986;48.190;16.366;2023-03-16T01:26:34;6.60;99.90
33645;DHT22;19986;48.190;16.366;2023-03-16T01:29:00;6.50;99.90
33645;DHT22;19986;48.190;16.366;2023-03-16T01:31:27;6.50;99.90
33645;DHT22;19986;48.190;16.366;2023-03-16T01:33:54;6.40;99.90
33645;DHT22;19986;48.190;16.366;2023-03-16T01:36:20;6.30;99.90
33645;DHT22;19986;48.190;16.366;2023-03-16T01:38:47;6.30;99.90
33645;DHT22;19986;48.190;16.366;2023-03-16T01:41:13;6.40;99.90
33645;DHT22;19986;48.190;16.366;2023-03-16T01:43:40;6.40;99.90
33645;DHT22;19986;48.190;16.366;2023-03-16T01:46:17;6.40;99.90
33645;DHT22;19986;48.190;16.366;2023-03-16T01:48:54;6.40;99.90
33645;DHT22;19986;48.190;16.366;2023-03-16T01:54:23;6.40;99.90
33645;DHT22;19986;48.190;16.366;2023-03-16T01:59:38;6.40;99.90
33645;DHT22;19986;48.190;16.366;2023-03-16T02:02:07;6.40;99.90
33645;DHT22;19986;48.190;16.366;2023-03-16T02:07:07;6.30;99.90
33645;DHT22;19986;48.190;16.366;2023-03-16T02:09:38;6.20;99.90
33645;DHT22;19986;48.190;16.366;2023-03-16T02:12:09;6.20;99.90
33645;DHT22;19986;48.190;16.366;2023-03-16T02:14:44;6.20;99.90
33645;DHT22;19986;48.190;16.366;2023-03-16T02:17:15;6.30;99.90
33645;DHT22;19986;48.190;16.366;2023-03-16T02:19:46;6.30;99.90
33645;DHT22;19986;48.190;16.366;2023-03-16T02:22:15;6.30;99.90
33645;DHT22;19986;48.190;16.366;2023-03-16T02:24:42;6.30;99.90
33645;DHT22;19986;48.190;16.366;2023-03-16T02:27:10;6.20;99.90
33645;DHT22;19986;48.190;16.366;2023-03-16T02:32:25;6.20;99.90
33645;DHT22;19986;48.190;16.366;2023-03-16T02:34:53;6.00;99.90
33645;DHT22;19986;48.190;16.366;2023-03-16T02:37:20;6.00;99.90
33645;DHT22;19986;48.190;16.366;2023-03-16T02:39:47;6.00;99.90
33645;DHT22;19986;48.190;16.366;2023-03-16T02:42:16;6.00;99.90
33645;DHT22;19986;48.190;16.366;2023-03-16T02:44:46;6.00;99.90
33645;DHT22;19986;48.190;16.366;2023-03-16T02:47:39;6.00;99.90
33645;DHT22;19986;48.190;16.366;2023-03-16T02:50:03;5.90;99.90
33645;DHT22;19986;48.190;16.366;2023-03-16T02:52:35;5.80;99.90
33645;DHT22;19986;48.190;16.366;2023-03-16T02:55:02;5.90;99.90
33645;DHT22;19986;48.190;16.366;2023-03-16T02:57:29;5.80;99.90
33645;DHT22;19986;48.190;16.366;2023-03-16T02:59:54;5.80;99.90
33645;DHT22;19986;48.190;16.366;2023-03-16T03:02:20;5.80;99.90
33645;DHT22;19986;48.190;16.366;2023-03-16T03:04:46;5.70;99.90
33645;DHT22;19986;48.190;16.366;2023-03-16T03:07:13;5.70;99.90
33645;DHT22;19986;48.190;16.366;2023-03-16T03:09:40;5.60;99.90
33645;DHT22;19986;48.190;16.366;2023-03-16T03:12:08;5.70;99.90
33645;DHT22;19986;48.190;16.366;2023-03-16T03:14:34;5.60;99.90
33645;DHT22;19986;48.190;16.366;2023-03-16T03:17:08;5.60;99.90
33645;DHT22;19986;48.190;16.366;2023-03-16T03:19:35;5.60;99.90
33645;DHT22;19986;48.190;16.366;2023-03-16T03:22:02;5.60;99.90
33645;DHT22;19986;48.190;16.366;2023-03-16T03:24:29;5.60;99.90
33645;DHT22;19986;48.190;16.366;2023-03-16T03:26:56;5.60;99.90
33645;DHT22;19986;48.190;16.366;2023-03-16T03:29:23;5.50;99.90
33645;DHT22;19986;48.190;16.366;2023-03-16T03:31:49;5.60;99.90
33645;DHT22;19986;48.190;16.366;2023-03-16T03:34:15;5.60;99.90
33645;DHT22;19986;48.190;16.366;2023-03-16T03:36:42;5.60;99.90
33645;DHT22;19986;48.190;16.366;2023-03-16T03:39:08;5.70;99.90
33645;DHT22;19986;48.190;16.366;2023-03-16T03:41:34;5.70;99.90
33645;DHT22;19986;48.190;16.366;2023-03-16T03:44:00;5.60;99.90
33645;DHT22;19986;48.190;16.366;2023-03-16T03:46:26;5.60;99.90
33645;DHT22;19986;48.190;16.366;2023-03-16T03:48:52;5.60;99.90
33645;DHT22;19986;48.190;16.366;2023-03-16T03:51:18;5.60;99.90
33645;DHT22;19986;48.190;16.366;2023-03-16T03:53:44;5.60;99.90
33645;DHT22;19986;48.190;16.366;2023-03-16T03:56:09;5.60;99.90
33645;DHT22;19986;48.190;16.366;2023-03-16T03:58:35;5.60;99.90
33645;DHT22;19986;48.190;16.366;2023-03-16T04:01:01;5.50;99.90
33645;DHT22;19986;48.190;16.366;2023-03-16T04:03:27;5.50;99.90
33645;DHT22;19986;48.190;16.366;2023-03-16T04:05:53;5.50;99.90
33645;DHT22;19986;48.190;16.366;2023-03-16T04:08:20;5.50;99.90
33645;DHT22;19986;48.190;16.366;2023-03-16T04:10:47;5.40;99.90
33645;DHT22;19986;48.190;16.366;2023-03-16T04:13:13;5.40;99.90
33645;DHT22;19986;48.190;16.366;2023-03-16T04:15:39;5.40;99.90
33645;DHT22;19986;48.190;16.366;2023-03-16T04:18:05;5.50;99.90
33645;DHT22;19986;48.190;16.366;2023-03-16T04:20:31;5.50;99.90
33645;DHT22;19986;48.190;16.366;2023-03-16T04:22:57;5.50;99.90
33645;DHT22;19986;48.190;16.366;2023-03-16T04:25:24;5.60;99.90
33645;DHT22;19986;48.190;16.366;2023-03-16T04:27:55;5.50;99.90
33645;DHT22;19986;48.190;16.366;2023-03-16T04:30:21;5.50;99.90
33645;DHT22;19986;48.190;16.366;2023-03-16T04:32:50;5.60;99.90
33645;DHT22;19986;48.190;16.366;2023-03-16T04:35:17;5.60;99.90
33645;DHT22;19986;48.190;16.366;2023-03-16T04:37:43;5.60;99.90
33645;DHT22;19986;48.190;16.366;2023-03-16T04:40:10;5.50;99.90
33645;DHT22;19986;48.190;16.366;2023-03-16T04:42:46;5.50;99.90
33645;DHT22;19986;48.190;16.366;2023-03-16T04:45:13;5.50;99.90
33645;DHT22;19986;48.190;16.366;2023-03-16T04:47:39;5.50;99.90
33645;DHT22;19986;48.190;16.366;2023-03-16T04:50:06;5.40;99.90
33645;DHT22;19986;48.190;16.366;2023-03-16T04:52:32;5.50;99.90
33645;DHT22;19986;48.190;16.366;2023-03-16T04:54:58;5.40;99.90
33645;DHT22;19986;48.190;16.366;2023-03-16T04:57:24;5.40;99.90
33645;DHT22;19986;48.190;16.366;2023-03-16T04:59:50;5.40;99.90
33645;DHT22;19986;48.190;16.366;2023-03-16T05:02:16;5.50;99.90
33645;DHT22;19986;48.190;16.366;2023-03-16T05:04:44;5.40;99.90
33645;DHT22;19986;48.190;16.366;2023-03-16T05:07:09;5.40;99.90
33645;DHT22;19986;48.190;16.366;2023-03-16T05:09:36;5.40;99.90
33645;DHT22;19986;48.190;16.366;2023-03-16T05:12:01;5.40;99.90
33645;DHT22;19986;48.190;16.366;2023-03-16T05:14:27;5.40;99.90
33645;DHT22;19986;48.190;16.366;2023-03-16T05:16:56;5.40;99.90
33645;DHT22;19986;48.190;16.366;2023-03-16T05:19:22;5.40;99.90
33645;DHT22;19986;48.190;16.366;2023-03-16T05:21:48;5.40;99.90
33645;DHT22;19986;48.190;16.366;2023-03-16T05:24:14;5.40;99.90
33645;DHT22;19986;48.190;16.366;2023-03-16T05:26:40;5.40;99.90
33645;DHT22;19986;48.190;16.366;2023-03-16T05:29:06;5.40;99.90
33645;DHT22;19986;48.190;16.366;2023-03-16T05:31:32;5.50;99.90
33645;DHT22;19986;48.190;16.366;2023-03-16T05:33:58;5.60;99.90
33645;DHT22;19986;48.190;16.366;2023-03-16T05:36:24;5.50;99.90
33645;DHT22;19986;48.190;16.366;2023-03-16T05:38:51;5.50;99.90
33645;DHT22;19986;48.190;16.366;2023-03-16T05:41:17;5.50;99.90
33645;DHT22;19986;48.190;16.366;2023-03-16T05:43:43;5.50;99.90
33645;DHT22;19986;48.190;16.366;2023-03-16T05:46:10;5.50;99.90
33645;DHT22;19986;48.190;16.366;2023-03-16T05:48:36;5.40;99.90
33645;DHT22;19986;48.190;16.366;2023-03-16T05:51:02;5.50;99.90
33645;DHT22;19986;48.190;16.366;2023-03-16T05:53:31;5.50;99.90
33645;DHT22;19986;48.190;16.366;2023-03-16T05:55:57;5.50;99.90
33645;DHT22;19986;48.190;16.366;2023-03-16T05:58:23;5.50;99.90
33645;DHT22;19986;48.190;16.366;2023-03-16T06:00:49;5.50;99.90
33645;DHT22;19986;48.190;16.366;2023-03-16T06:03:16;5.50;99.90
33645;DHT22;19986;48.190;16.366;2023-03-16T06:05:42;5.60;99.90
33645;DHT22;19986;48.190;16.366;2023-03-16T06:08:08;5.60;99.90
33645;DHT22;19986;48.190;16.366;2023-03-16T06:10:35;5.60;99.90
33645;DHT22;19986;48.190;16.366;2023-03-16T06:13:01;5.60;99.90
33645;DHT22;19986;48.190;16.366;2023-03-16T06:15:26;5.70;99.90
33645;DHT22;19986;48.190;16.366;2023-03-16T06:17:55;5.70;99.90
33645;DHT22;19986;48.190;16.366;2023-03-16T06:20:21;5.70;99.90
33645;DHT22;19986;48.190;16.366;2023-03-16T06:22:47;5.70;99.90
33645;DHT22;19986;48.190;16.366;2023-03-16T06:25:13;5.80;99.90
33645;DHT22;19986;48.190;16.366;2023-03-16T06:27:39;5.90;99.90
33645;DHT22;19986;48.190;16.366;2023-03-16T06:30:07;5.90;99.90
33645;DHT22;19986;48.190;16.366;2023-03-16T06:32:34;6.00;99.90
33645;DHT22;19986;48.190;16.366;2023-03-16T06:35:03;6.00;99.90
33645;DHT22;19986;48.190;16.366;2023-03-16T06:37:30;6.00;99.90
33645;DHT22;19986;48.190;16.366;2023-03-16T06:39:56;6.00;99.90
33645;DHT22;19986;48.190;16.366;2023-03-16T06:42:22;6.00;99.90
33645;DHT22;19986;48.190;16.366;2023-03-16T06:44:48;6.00;99.90
33645;DHT22;19986;48.190;16.366;2023-03-16T06:47:14;6.10;99.90
33645;DHT22;19986;48.190;16.366;2023-03-16T06:49:40;6.20;99.90
33645;DHT22;19986;48.190;16.366;2023-03-16T06:52:06;6.30;99.90
33645;DHT22;19986;48.190;16.366;2023-03-16T06:54:32;6.40;99.90
33645;DHT22;19986;48.190;16.366;2023-03-16T06:57:00;6.40;99.90
33645;DHT22;19986;48.190;16.366;2023-03-16T06:59:26;6.40;99.90
33645;DHT22;19986;48.190;16.366;2023-03-16T07:01:52;6.50;99.90
33645;DHT22;19986;48.190;16.366;2023-03-16T07:04:17;6.60;99.90
33645;DHT22;19986;48.190;16.366;2023-03-16T07:06:43;6.70;99.90
33645;DHT22;19986;48.190;16.366;2023-03-16T07:09:09;6.70;99.90
33645;DHT22;19986;48.190;16.366;2023-03-16T07:11:37;6.70;99.90
33645;DHT22;19986;48.190;16.366;2023-03-16T07:14:03;6.80;99.90
33645;DHT22;19986;48.190;16.366;2023-03-16T07:16:29;6.80;99.90
33645;DHT22;19986;48.190;16.366;2023-03-16T07:18:56;6.80;99.90
33645;DHT22;19986;48.190;16.366;2023-03-16T07:21:22;6.80;99.90
33645;DHT22;19986;48.190;16.366;2023-03-16T07:23:49;6.80;99.90
33645;DHT22;19986;48.190;16.366;2023-03-16T07:26:14;6.90;99.90
33645;DHT22;19986;48.190;16.366;2023-03-16T07:28:40;6.90;99.90
33645;DHT22;19986;48.190;16.366;2023-03-16T07:31:07;7.00;99.90
33645;DHT22;19986;48.190;16.366;2023-03-16T07:33:34;7.00;99.90
33645;DHT22;19986;48.190;16.366;2023-03-16T07:36:00;7.20;99.90
33645;DHT22;19986;48.190;16.366;2023-03-16T07:38:31;7.20;99.90
33645;DHT22;19986;48.190;16.366;2023-03-16T07:41:00;7.20;99.90
33645;DHT22;19986;48.190;16.366;2023-03-16T07:43:26;7.30;99.90
33645;DHT22;19986;48.190;16.366;2023-03-16T07:45:52;7.40;99.90
33645;DHT22;19986;48.190;16.366;2023-03-16T07:48:18;7.40;99.90
33645;DHT22;19986;48.190;16.366;2023-03-16T07:50:46;7.50;99.90
33645;DHT22;19986;48.190;16.366;2023-03-16T07:53:13;7.50;99.90
33645;DHT22;19986;48.190;16.366;2023-03-16T07:55:41;7.50;99.90
33645;DHT22;19986;48.190;16.366;2023-03-16T07:58:08;7.60;99.80
33645;DHT22;19986;48.190;16.366;2023-03-16T08:00:35;7.70;99.60
33645;DHT22;19986;48.190;16.366;2023-03-16T08:03:02;7.70;99.10
33645;DHT22;19986;48.190;16.366;2023-03-16T08:05:28;7.80;99.10
33645;DHT22;19986;48.190;16.366;2023-03-16T08:07:54;7.90;99.00
33645;DHT22;19986;48.190;16.366;2023-03-16T08:10:22;8.00;98.90
33645;DHT22;19986;48.190;16.366;2023-03-16T08:12:48;8.00;98.90
33645;DHT22;19986;48.190;16.366;2023-03-16T08:15:14;7.90;99.00
33645;DHT22;19986;48.190;16.366;2023-03-16T08:17:40;8.00;99.10
33645;DHT22;19986;48.190;16.366;2023-03-16T08:20:07;8.00;98.90
33645;DHT22;19986;48.190;16.366;2023-03-16T08:22:36;8.00;98.80
33645;DHT22;19986;48.190;16.366;2023-03-16T08:25:04;8.10;98.80
33645;DHT22;19986;48.190;16.366;2023-03-16T08:27:32;8.20;98.80
33645;DHT22;19986;48.190;16.366;2023-03-16T08:29:58;8.20;98.60
33645;DHT22;19986;48.190;16.366;2023-03-16T08:32:29;8.30;98.70
33645;DHT22;19986;48.190;16.366;2023-03-16T08:34:55;8.20;98.30
33645;DHT22;19986;48.190;16.366;2023-03-16T08:37:22;8.20;98.30
33645;DHT22;19986;48.190;16.366;2023-03-16T08:39:49;8.30;98.10
33645;DHT22;19986;48.190;16.366;2023-03-16T08:42:16;8.50;98.00
33645;DHT22;19986;48.190;16.366;2023-03-16T08:44:42;8.60;97.50
33645;DHT22;19986;48.190;16.366;2023-03-16T08:47:09;8.60;97.50
33645;DHT22;19986;48.190;16.366;2023-03-16T08:49:35;8.70;96.00
33645;DHT22;19986;48.190;16.366;2023-03-16T08:52:02;8.60;96.10
33645;DHT22;19986;48.190;16.366;2023-03-16T08:54:30;8.60;95.40
33645;DHT22;19986;48.190;16.366;2023-03-16T08:56:57;8.60;95.60
33645;DHT22;19986;48.190;16.366;2023-03-16T08:59:23;8.50;95.70
33645;DHT22;19986;48.190;16.366;2023-03-16T09:01:49;8.60;95.40
33645;DHT22;19986;48.190;16.366;2023-03-16T09:04:15;8.40;94.50
33645;DHT22;19986;48.190;16.366;2023-03-16T09:06:41;8.40;94.60
33645;DHT22;19986;48.190;16.366;2023-03-16T09:09:07;8.50;94.50
33645;DHT22;19986;48.190;16.366;2023-03-16T09:11:34;8.50;93.00
33645;DHT22;19986;48.190;16.366;2023-03-16T09:14:00;8.50;93.40
33645;DHT22;19986;48.190;16.366;2023-03-16T09:16:27;8.50;93.30
33645;DHT22;19986;48.190;16.366;2023-03-16T09:18:55;8.50;93.70
33645;DHT22;19986;48.190;16.366;2023-03-16T09:21:21;8.60;94.20
33645;DHT22;19986;48.190;16.366;2023-03-16T09:23:48;8.70;93.90
33645;DHT22;19986;48.190;16.366;2023-03-16T09:26:16;8.80;93.50
33645;DHT22;19986;48.190;16.366;2023-03-16T09:28:42;8.90;93.20
33645;DHT22;19986;48.190;16.366;2023-03-16T09:31:09;8.90;92.90
33645;DHT22;19986;48.190;16.366;2023-03-16T09:33:39;8.90;93.20
33645;DHT22;19986;48.190;16.366;2023-03-16T09:36:05;9.00;93.40
33645;DHT22;19986;48.190;16.366;2023-03-16T09:38:31;9.00;93.80
33645;DHT22;19986;48.190;16.366;2023-03-16T09:41:00;9.10;93.20
33645;DHT22;19986;48.190;16.366;2023-03-16T09:48:46;9.10;92.90
33645;DHT22;19986;48.190;16.366;2023-03-16T09:54:37;9.50;93.00
33645;DHT22;19986;48.190;16.366;2023-03-16T09:57:23;9.60;92.70
33645;DHT22;19986;48.190;16.366;2023-03-16T09:59:50;9.60;92.60
33645;DHT22;19986;48.190;16.366;2023-03-16T10:02:49;9.60;91.50
33645;DHT22;19986;48.190;16.366;2023-03-16T10:05:22;9.60;91.80
33645;DHT22;19986;48.190;16.366;2023-03-16T10:15:54;9.70;91.70
33645;DHT22;19986;48.190;16.366;2023-03-16T10:18:25;9.80;91.70
33645;DHT22;19986;48.190;16.366;2023-03-16T10:20:53;9.80;91.30
33645;DHT22;19986;48.190;16.366;2023-03-16T10:23:22;9.80;91.70
33645;DHT22;19986;48.190;16.366;2023-03-16T10:25:53;9.90;91.70
33645;DHT22;19986;48.190;16.366;2023-03-16T10:28:25;9.90;91.00
33645;DHT22;19986;48.190;16.366;2023-03-16T10:30:53;10.00;91.40
33645;DHT22;19986;48.190;16.366;2023-03-16T10:33:24;10.20;91.00
33645;DHT22;19986;48.190;16.366;2023-03-16T10:38:40;10.40;90.80
33645;DHT22;19986;48.190;16.366;2023-03-16T10:43:56;10.80;90.40
33645;DHT22;19986;48.190;16.366;2023-03-16T10:46:26;10.80;90.30
33645;DHT22;19986;48.190;16.366;2023-03-16T10:48:55;10.80;89.80
33645;DHT22;19986;48.190;16.366;2023-03-16T10:51:34;10.80;90.50
33645;DHT22;19986;48.190;16.366;2023-03-16T10:54:08;10.80;89.20
33645;DHT22;19986;48.190;16.366;2023-03-16T10:56:39;10.70;89.40
33645;DHT22;19986;48.190;16.366;2023-03-16T10:59:23;10.70;89.50
33645;DHT22;19986;48.190;16.366;2023-03-16T11:01:50;10.60;88.60
33645;DHT22;19986;48.190;16.366;2023-03-16T11:04:18;10.40;89.10
33645;DHT22;19986;48.190;16.366;2023-03-16T11:06:55;10.40;89.30
33645;DHT22;19986;48.190;16.366;2023-03-16T11:09:32;10.40;89.40
33645;DHT22;19986;48.190;16.366;2023-03-16T11:11:59;10.40;90.00
33645;DHT22;19986;48.190;16.366;2023-03-16T11:14:27;10.30;90.00
33645;DHT22;19986;48.190;16.366;2023-03-16T11:17:05;10.40;90.20
33645;DHT22;19986;48.190;16.366;2023-03-16T11:19:38;10.50;90.10
33645;DHT22;19986;48.190;16.366;2023-03-16T11:22:25;10.60;89.80
33645;DHT22;19986;48.190;16.366;2023-03-16T11:30:26;10.70;90.20
33645;DHT22;19986;48.190;16.366;2023-03-16T11:32:51;10.70;90.10
33645;DHT22;19986;48.190;16.366;2023-03-16T11:35:21;10.80;89.60
33645;DHT22;19986;48.190;16.366;2023-03-16T11:40:57;10.80;90.20
33645;DHT22;19986;48.190;16.366;2023-03-16T11:46:26;10.90;90.40
33645;DHT22;19986;48.190;16.366;2023-03-16T11:55:38;11.00;88.70
33645;DHT22;19986;48.190;16.366;2023-03-16T12:11:27;11.10;86.80
33645;DHT22;19986;48.190;16.366;2023-03-16T12:14:28;11.20;87.30
33645;DHT22;19986;48.190;16.366;2023-03-16T12:17:19;11.30;86.80
33645;DHT22;19986;48.190;16.366;2023-03-16T12:23:03;11.40;86.80
33645;DHT22;19986;48.190;16.366;2023-03-16T12:25:33;11.30;86.30
33645;DHT22;19986;48.190;16.366;2023-03-16T12:28:05;11.20;86.90
33645;DHT22;19986;48.190;16.366;2023-03-16T12:33:24;11.10;87.50
33645;DHT22;19986;48.190;16.366;2023-03-16T12:36:13;11.10;87.20
33645;DHT22;19986;48.190;16.366;2023-03-16T12:46:59;11.00;85.60
33645;DHT22;19986;48.190;16.366;2023-03-16T12:49:33;11.00;86.00
33645;DHT22;19986;48.190;16.366;2023-03-16T12:52:07;11.10;85.60
33645;DHT22;19986;48.190;16.366;2023-03-16T12:54:33;11.20;86.10
33645;DHT22;19986;48.190;16.366;2023-03-16T12:57:07;11.20;87.20
33645;DHT22;19986;48.190;16.366;2023-03-16T12:59:45;11.30;87.00
33645;DHT22;19986;48.190;16.366;2023-03-16T13:02:23;11.40;87.50
33645;DHT22;19986;48.190;16.366;2023-03-16T13:04:56;11.50;86.30
33645;DHT22;19986;48.190;16.366;2023-03-16T13:07:26;11.50;85.80
33645;DHT22;19986;48.190;16.366;2023-03-16T13:10:09;11.50;85.30
33645;DHT22;19986;48.190;16.366;2023-03-16T13:12:37;11.50;84.80
33645;DHT22;19986;48.190;16.366;2023-03-16T13:17:51;11.50;85.70
33645;DHT22;19986;48.190;16.366;2023-03-16T13:23:18;11.40;86.30
33645;DHT22;19986;48.190;16.366;2023-03-16T13:28:35;11.40;86.60
33645;DHT22;19986;48.190;16.366;2023-03-16T13:31:05;11.50;86.50
33645;DHT22;19986;48.190;16.366;2023-03-16T13:33:36;11.50;86.60
33645;DHT22;19986;48.190;16.366;2023-03-16T13:36:04;11.60;85.70
33645;DHT22;19986;48.190;16.366;2023-03-16T13:38:30;11.50;85.40
33645;DHT22;19986;48.190;16.366;2023-03-16T13:41:02;11.60;85.60
33645;DHT22;19986;48.190;16.366;2023-03-16T13:43:31;11.70;84.80
33645;DHT22;19986;48.190;16.366;2023-03-16T13:45:58;11.60;84.70
33645;DHT22;19986;48.190;16.366;2023-03-16T13:48:24;11.70;85.20
33645;DHT22;19986;48.190;16.366;2023-03-16T13:50:54;11.70;84.90
33645;DHT22;19986;48.190;16.366;2023-03-16T13:53:26;11.70;84.60
33645;DHT22;19986;48.190;16.366;2023-03-16T13:55:56;11.70;84.70
33645;DHT22;19986;48.190;16.366;2023-03-16T13:58:28;11.60;84.70
33645;DHT22;19986;48.190;16.366;2023-03-16T14:01:01;11.60;84.80
33645;DHT22;19986;48.190;16.366;2023-03-16T14:03:38;11.60;84.60
33645;DHT22;19986;48.190;16.366;2023-03-16T14:06:22;11.70;85.10
33645;DHT22;19986;48.190;16.366;2023-03-16T14:08:52;11.80;84.10
33645;DHT22;19986;48.190;16.366;2023-03-16T14:11:20;11.70;83.50
33645;DHT22;19986;48.190;16.366;2023-03-16T14:13:56;11.70;82.80
33645;DHT22;19986;48.190;16.366;2023-03-16T14:16:25;11.60;82.80
33645;DHT22;19986;48.190;16.366;2023-03-16T14:19:05;11.60;83.20
33645;DHT22;19986;48.190;16.366;2023-03-16T14:21:32;11.60;82.80
33645;DHT22;19986;48.190;16.366;2023-03-16T14:24:05;11.60;82.60
33645;DHT22;19986;48.190;16.366;2023-03-16T14:26:42;11.60;82.20
33645;DHT22;19986;48.190;16.366;2023-03-16T14:29:22;11.70;82.70
33645;DHT22;19986;48.190;16.366;2023-03-16T14:31:49;11.80;81.70
33645;DHT22;19986;48.190;16.366;2023-03-16T14:34:21;11.80;81.60
33645;DHT22;19986;48.190;16.366;2023-03-16T14:36:51;11.80;81.20
33645;DHT22;19986;48.190;16.366;2023-03-16T14:39:21;11.70;81.30
33645;DHT22;19986;48.190;16.366;2023-03-16T14:41:51;11.70;81.80
33645;DHT22;19986;48.190;16.366;2023-03-16T14:44:21;11.70;82.00
33645;DHT22;19986;48.190;16.366;2023-03-16T14:46:48;11.70;82.30
33645;DHT22;19986;48.190;16.366;2023-03-16T14:49:23;11.70;82.70
33645;DHT22;19986;48.190;16.366;2023-03-16T14:51:53;11.80;81.60
33645;DHT22;19986;48.190;16.366;2023-03-16T14:54:21;11.80;81.40
33645;DHT22;19986;48.190;16.366;2023-03-16T14:56:53;11.80;81.10
33645;DHT22;19986;48.190;16.366;2023-03-16T14:59:20;11.80;80.80
33645;DHT22;19986;48.190;16.366;2023-03-16T15:01:48;11.80;80.80
33645;DHT22;19986;48.190;16.366;2023-03-16T15:04:18;11.70;80.80
33645;DHT22;19986;48.190;16.366;2023-03-16T15:06:45;11.80;81.00
33645;DHT22;19986;48.190;16.366;2023-03-16T15:09:39;11.80;80.80
33645;DHT22;19986;48.190;16.366;2023-03-16T15:12:18;11.80;80.20
33645;DHT22;19986;48.190;16.366;2023-03-16T15:14:45;11.70;79.50
33645;DHT22;19986;48.190;16.366;2023-03-16T15:17:30;11.70;79.30
33645;DHT22;19986;48.190;16.366;2023-03-16T15:19:56;11.60;80.10
33645;DHT22;19986;48.190;16.366;2023-03-16T15:22:32;11.70;80.30
33645;DHT22;19986;48.190;16.366;2023-03-16T15:25:48;11.80;80.60
33645;DHT22;19986;48.190;16.366;2023-03-16T15:27:49;11.80;80.00
33645;DHT22;19986;48.190;16.366;2023-03-16T15:30:21;11.70;80.20
33645;DHT22;19986;48.190;16.366;2023-03-16T15:32:47;11.70;80.10
33645;DHT22;19986;48.190;16.366;2023-03-16T15:35:13;11.70;79.40
33645;DHT22;19986;48.190;16.366;2023-03-16T15:37:39;11.60;79.10
33645;DHT22;19986;48.190;16.366;2023-03-16T15:40:15;11.60;79.50
33645;DHT22;19986;48.190;16.366;2023-03-16T15:42:42;11.60;79.80
33645;DHT22;19986;48.190;16.366;2023-03-16T15:45:13;11.70;80.20
33645;DHT22;19986;48.190;16.366;2023-03-16T15:47:42;11.60;80.20
33645;DHT22;19986;48.190;16.366;2023-03-16T15:50:13;11.50;80.30
33645;DHT22;19986;48.190;16.366;2023-03-16T15:53:01;11.50;80.50
33645;DHT22;19986;48.190;16.366;2023-03-16T15:55:43;11.50;81.00
33645;DHT22;19986;48.190;16.366;2023-03-16T15:58:19;11.50;81.10
33645;DHT22;19986;48.190;16.366;2023-03-16T16:00:49;11.60;80.70
33645;DHT22;19986;48.190;16.366;2023-03-16T16:03:15;11.50;80.80
33645;DHT22;19986;48.190;16.366;2023-03-16T16:05:41;11.50;80.80
33645;DHT22;19986;48.190;16.366;2023-03-16T16:08:07;11.50;80.60
33645;DHT22;19986;48.190;16.366;2023-03-16T16:10:33;11.50;79.70
33645;DHT22;19986;48.190;16.366;2023-03-16T16:12:59;11.40;80.00
33645;DHT22;19986;48.190;16.366;2023-03-16T16:15:41;11.30;80.70
33645;DHT22;19986;48.190;16.366;2023-03-16T16:20:51;11.30;81.30
33645;DHT22;19986;48.190;16.366;2023-03-16T16:23:18;11.30;81.60
33645;DHT22;19986;48.190;16.366;2023-03-16T16:25:44;11.30;81.60
33645;DHT22;19986;48.190;16.366;2023-03-16T16:28:21;11.30;81.70
33645;DHT22;19986;48.190;16.366;2023-03-16T16:30:47;11.20;82.00
33645;DHT22;19986;48.190;16.366;2023-03-16T16:33:31;11.20;82.20
33645;DHT22;19986;48.190;16.366;2023-03-16T16:36:06;11.20;82.40
33645;DHT22;19986;48.190;16.366;2023-03-16T16:38:35;11.20;82.80
33645;DHT22;19986;48.190;16.366;2023-03-16T16:41:07;11.20;82.80
33645;DHT22;19986;48.190;16.366;2023-03-16T16:43:46;11.10;82.70
33645;DHT22;19986;48.190;16.366;2023-03-16T16:46:19;11.10;82.70
33645;DHT22;19986;48.190;16.366;2023-03-16T16:48:47;11.00;82.80
33645;DHT22;19986;48.190;16.366;2023-03-16T16:51:27;11.00;83.00
33645;DHT22;19986;48.190;16.366;2023-03-16T16:53:55;10.90;82.80
33645;DHT22;19986;48.190;16.366;2023-03-16T16:56:28;10.90;83.20
33645;DHT22;19986;48.190;16.366;2023-03-16T16:58:57;10.90;83.40
33645;DHT22;19986;48.190;16.366;2023-03-16T17:01:31;10.90;83.60
33645;DHT22;19986;48.190;16.366;2023-03-16T17:04:00;10.90;83.40
33645;DHT22;19986;48.190;16.366;2023-03-16T17:06:27;10.90;83.40